Map

Track Data

SID SEASON NUMBER BASIN SUBBASIN NAME ISO_TIME NATURE LAT LON WMO_WIND WMO_PRES WMO_AGENCY TRACK_TYPE DIST2LAND LANDFALL IFLAG USA_AGENCY USA_ATCF_ID USA_LAT USA_LON USA_RECORD USA_STATUS USA_WIND USA_PRES USA_SSHS USA_R34_NE USA_R34_SE USA_R34_SW USA_R34_NW USA_R50_NE USA_R50_SE USA_R50_SW USA_R50_NW USA_R64_NE USA_R64_SE USA_R64_SW USA_R64_NW USA_POCI USA_ROCI USA_RMW USA_EYE TOKYO_LAT TOKYO_LON TOKYO_GRADE TOKYO_WIND TOKYO_PRES TOKYO_R50_DIR TOKYO_R50_LONG TOKYO_R50_SHORT TOKYO_R30_DIR TOKYO_R30_LONG TOKYO_R30_SHORT TOKYO_LAND CMA_LAT CMA_LON CMA_CAT CMA_WIND CMA_PRES HKO_LAT HKO_LON HKO_CAT HKO_WIND HKO_PRES NEWDELHI_LAT NEWDELHI_LON NEWDELHI_GRADE NEWDELHI_WIND NEWDELHI_PRES NEWDELHI_CI NEWDELHI_DP NEWDELHI_POCI REUNION_LAT REUNION_LON REUNION_TYPE REUNION_WIND REUNION_PRES REUNION_TNUM REUNION_CI REUNION_RMW REUNION_R34_NE REUNION_R34_SE REUNION_R34_SW REUNION_R34_NW REUNION_R50_NE REUNION_R50_SE REUNION_R50_SW REUNION_R50_NW REUNION_R64_NE REUNION_R64_SE REUNION_R64_SW REUNION_R64_NW BOM_LAT BOM_LON BOM_TYPE BOM_WIND BOM_PRES BOM_TNUM BOM_CI BOM_RMW BOM_R34_NE BOM_R34_SE BOM_R34_SW BOM_R34_NW BOM_R50_NE BOM_R50_SE BOM_R50_SW BOM_R50_NW BOM_R64_NE BOM_R64_SE BOM_R64_SW BOM_R64_NW BOM_ROCI BOM_POCI BOM_EYE BOM_POS_METHOD BOM_PRES_METHOD NADI_LAT NADI_LON NADI_CAT NADI_WIND NADI_PRES WELLINGTON_LAT WELLINGTON_LON WELLINGTON_WIND WELLINGTON_PRES DS824_LAT DS824_LON DS824_STAGE DS824_WIND DS824_PRES TD9636_LAT TD9636_LON TD9636_STAGE TD9636_WIND TD9636_PRES TD9635_LAT TD9635_LON TD9635_WIND TD9635_PRES TD9635_ROCI NEUMANN_LAT NEUMANN_LON NEUMANN_CLASS NEUMANN_WIND NEUMANN_PRES MLC_LAT MLC_LON MLC_CLASS MLC_WIND MLC_PRES USA_GUST BOM_GUST BOM_GUST_PER REUNION_GUST REUNION_GUST_PER USA_SEAHGT USA_SEARAD_NE USA_SEARAD_SE USA_SEARAD_SW USA_SEARAD_NW STORM_SPEED STORM_DIR
2021166N20265 2021 35 NA GM CLAUDETTE 2021-06-14 18:00:00 DS 19.8000 -95.1000 PROVISIONAL 123 112 O_____________ nhc_working_bt AL032021 19.8000 -95.1000 LO 20 1009 -3 1011 150 90 3 0
2021166N20265 2021 35 NA GM CLAUDETTE 2021-06-14 21:00:00 DS 19.6500 -95.1000 PROVISIONAL 112 90 P_____________ AL032021 19.6500 -95.1000 LO 20 1009 -3 1011 150 90 3 0
2021166N20265 2021 35 NA GM CLAUDETTE 2021-06-15 00:00:00 DS 19.5000 -95.1000 PROVISIONAL 90 79 O_____________ nhc_working_bt AL032021 19.5000 -95.1000 LO 20 1009 -3 1011 150 90 3 0
2021166N20265 2021 35 NA GM CLAUDETTE 2021-06-15 03:00:00 DS 19.3500 -95.1000 PROVISIONAL 79 56 P_____________ AL032021 19.3500 -95.1000 LO 20 1009 -3 1011 150 90 3 0
2021166N20265 2021 35 NA GM CLAUDETTE 2021-06-15 06:00:00 DS 19.2000 -95.1000 PROVISIONAL 56 45 O_____________ nhc_working_bt AL032021 19.2000 -95.1000 LO 20 1009 -3 1011 150 90 3 0
2021166N20265 2021 35 NA GM CLAUDETTE 2021-06-15 09:00:00 DS 19.0500 -95.1150 PROVISIONAL 35 24 P_____________ AL032021 19.0500 -95.1150 LO 20 1009 -3 1011 150 105 3 0
2021166N20265 2021 35 NA GM CLAUDETTE 2021-06-15 12:00:00 DS 18.9000 -95.1000 PROVISIONAL 24 15 O_____________ nhc_working_bt AL032021 18.9000 -95.1000 LO 20 1009 -3 1011 150 120 3 163
2021166N20265 2021 35 NA GM CLAUDETTE 2021-06-15 15:00:00 DS 18.7500 -95.0150 PROVISIONAL 22 10 P_____________ AL032021 18.7500 -95.0150 LO 20 1009 -3 1011 150 120 4 148
2021166N20265 2021 35 NA GM CLAUDETTE 2021-06-15 18:00:00 DS 18.6000 -94.9000 PROVISIONAL 10 0 O_____________ nhc_working_bt AL032021 18.6000 -94.9000 LO 20 1009 -3 1011 150 120 4 149
2021166N20265 2021 35 NA NA CLAUDETTE 2021-06-15 21:00:00 DS 18.4275 -94.8075 PROVISIONAL 0 0 P_____________ AL032021 18.4275 -94.8075 LO 20 1009 -3 1011 150 120 4 148
2021166N20265 2021 35 NA GM CLAUDETTE 2021-06-16 00:00:00 DS 18.3000 -94.7000 PROVISIONAL 0 0 O_____________ nhc_working_bt AL032021 18.3000 -94.7000 LO 20 1009 -3 1011 150 120 3 125
2021166N20265 2021 35 NA GM CLAUDETTE 2021-06-16 03:00:00 DS 18.2625 -94.5575 PROVISIONAL 10 10 P_____________ AL032021 18.2625 -94.5575 LO 20 1009 -3 1011 150 120 3 90
2021166N20265 2021 35 NA GM CLAUDETTE 2021-06-16 06:00:00 DS 18.3000 -94.4000 PROVISIONAL 22 22 O_____________ nhc_working_bt AL032021 18.3000 -94.4000 LO 20 1009 -3 1011 150 120 30 3 68
2021166N20265 2021 35 NA GM CLAUDETTE 2021-06-16 09:00:00 DS 18.3699 -94.2724 PROVISIONAL 30 24 P_____________ AL032021 18.3699 -94.2724 LO 20 1009 -3 1011 150 120 3 55
2021166N20265 2021 35 NA GM CLAUDETTE 2021-06-16 12:00:00 DS 18.5000 -94.1000 PROVISIONAL 30 24 O_____________ nhc_working_bt AL032021 18.5000 -94.1000 LO 20 1009 -3 1011 150 120 30 5 55
2021166N20265 2021 35 NA GM CLAUDETTE 2021-06-16 15:00:00 DS 18.6701 -93.8150 PROVISIONAL 44 44 P_____________ AL032021 18.6701 -93.8150 LO 20 1009 -3 1011 150 120 7 55
2021166N20265 2021 35 NA GM CLAUDETTE 2021-06-16 18:00:00 DS 18.9000 -93.5000 PROVISIONAL 67 67 O_____________ nhc_working_bt AL032021 18.9000 -93.5000 LO 20 1009 -3 1011 150 120 30 7 48
2021166N20265 2021 35 NA GM CLAUDETTE 2021-06-16 21:00:00 DS 19.1625 -93.2275 PROVISIONAL 85 85 P_____________ AL032021 19.1625 -93.2275 LO 20 1009 -3 1011 150 125 8 38
2021166N20265 2021 35 NA GM CLAUDETTE 2021-06-17 00:00:00 DS 19.5000 -93.0000 PROVISIONAL 105 105 O_____________ nhc_working_bt AL032021 19.5000 -93.0000 LO 20 1009 -3 1011 150 130 30 9 27
2021166N20265 2021 35 NA GM CLAUDETTE 2021-06-17 03:00:00 DS 19.9200 -92.8274 PROVISIONAL 145 145 P_____________ AL032021 19.9200 -92.8274 LO 22 1008 -3 1011 175 140 9 17
2021166N20265 2021 35 NA GM CLAUDETTE 2021-06-17 06:00:00 DS 20.4000 -92.7000 PROVISIONAL 201 201 O_____________ nhc_working_bt AL032021 20.4000 -92.7000 LO 25 1008 -3 1011 200 150 10 13
2021166N20265 2021 35 NA GM CLAUDETTE 2021-06-17 09:00:00 DS 20.8850 -92.5850 PROVISIONAL 222 218 P_____________ AL032021 20.8850 -92.5850 LO 25 1008 -3 1011 190 150 10 11
2021166N20265 2021 35 NA GM CLAUDETTE 2021-06-17 12:00:00 DS 21.4000 -92.5000 PROVISIONAL 227 227 O_____________ nhc_working_bt AL032021 21.4000 -92.5000 LO 25 1008 -3 1011 180 150 35 11 6
2021166N20265 2021 35 NA GM CLAUDETTE 2021-06-17 15:00:00 DS 21.9424 -92.4720 PROVISIONAL 244 244 P_____________ AL032021 21.9424 -92.4720 LO 25 1008 -3 1011 180 150 11 5
2021166N20265 2021 35 NA GM CLAUDETTE 2021-06-17 18:00:00 DS 22.5000 -92.4000 PROVISIONAL 267 267 O_____________ nhc_working_bt AL032021 22.5000 -92.4000 LO 25 1008 -3 1011 180 150 35 10 12
2021166N20265 2021 35 NA GM CLAUDETTE 2021-06-17 21:00:00 DS 22.9500 -92.2342 PROVISIONAL 288 288 P_____________ AL032021 23.0651 -92.1728 LO 25 1007 -3 1010 180 150 9 21
2021166N20265 2021 35 NA GM CLAUDETTE 2021-06-18 00:00:00 DS 23.3500 -92.0500 PROVISIONAL 310 310 O_____________ nhc_working_bt AL032021 23.6000 -91.9000 LO 25 1007 -3 1010 180 150 35 10 21
2021166N20265 2021 35 NA GM CLAUDETTE 2021-06-18 03:00:00 DS 23.8650 -91.8428 PROVISIONAL 348 348 P_____________ AL032021 24.0275 -91.6846 LO 27 1007 -3 1010 180 150 12 18
2021166N20265 2021 35 NA GM CLAUDETTE 2021-06-18 06:00:00 DS 24.4937 -91.6424 PROVISIONAL 402 402 O_____________ nhc_working_bt AL032021 24.5000 -91.5000 LO 30 1007 -3 1010 180 150 40 13 14
2021166N20265 2021 35 NA GM CLAUDETTE 2021-06-18 09:00:00 DS 25.1690 -91.4941 PROVISIONAL 439 371 P_____________ AL032021 25.1550 -91.3203 LO 30 1007 -3 1010 180 135 14 10
2021166N20265 2021 35 NA GM CLAUDETTE 2021-06-18 12:00:00 DS 25.8777 -91.3682 PROVISIONAL 360 281 O_____________ nhc_working_bt AL032021 25.9000 -91.2000 LO 30 1007 -3 1010 180 120 40 15 6
2021166N20265 2021 35 NA GM CLAUDETTE 2021-06-18 15:00:00 DS 26.6194 -91.3276 PROVISIONAL 281 204 P_____________ AL032021 26.6800 -91.1845 LO 35 1006 -3 90 90 1010 180 120 15 3
2021166N20265 2021 35 NA GM CLAUDETTE 2021-06-18 18:00:00 DS 27.3313 -91.2846 PROVISIONAL 204 137 O_____________ nhc_working_bt AL032021 27.4000 -91.2000 LO 40 1006 -3 180 180 1010 180 120 50 13 5
2021166N20265 2021 35 NA GM CLAUDETTE 2021-06-18 21:00:00 DS 27.9178 -91.1922 PROVISIONAL 137 80 P_____________ AL032021 27.9525 -91.1576 LO 40 1006 -3 180 180 1010 180 120 11 9
2021166N20265 2021 35 NA GM CLAUDETTE 2021-06-19 00:00:00 DS 28.4000 -91.1000 PROVISIONAL 80 38 O_____________ nhc_working_bt AL032021 28.4000 -91.1000 LO 40 1007 -3 180 180 1010 180 120 50 12 90 9 5
2021166N20265 2021 35 NA GM CLAUDETTE 2021-06-19 03:00:00 DS 28.7772 -91.1162 PROVISIONAL 38 0 P_____________ AL032021 28.7772 -91.1162 LO 40 1006 -3 180 180 1010 165 120 12 135 8 6
2021166N20265 2021 35 NA GM CLAUDETTE 2021-06-19 06:00:00 TS 29.2000 -91.0000 PROVISIONAL 0 0 O_____________ nhc_working_bt AL032021 29.2000 -91.0000 TS 40 1006 0 180 180 1010 150 120 50 12 180 90 11 24
2021166N20265 2021 35 NA NA CLAUDETTE 2021-06-19 09:00:00 TS 29.8125 -90.5977 PROVISIONAL 0 0 P_____________ AL032021 29.8125 -90.5977 TS 40 1006 0 180 1010 150 120 12 180 90 16 34
2021166N20265 2021 35 NA NA CLAUDETTE 2021-06-19 12:00:00 TS 30.5000 -90.0000 PROVISIONAL 0 0 O_____________ nhc_working_bt AL032021 30.5000 -90.0000 TS 40 1006 0 180 1010 150 120 50 12 180 90 18 39
2021166N20265 2021 35 NA NA CLAUDETTE 2021-06-19 15:00:00 TS 31.2031 -89.2939 PROVISIONAL 0 0 P_____________ AL032021 31.2031 -89.2939 TS 37 1006 0 180 1010 150 120 12 105 18 43
2021166N20265 2021 35 NA NA CLAUDETTE 2021-06-19 18:00:00 TS 31.8000 -88.6000 PROVISIONAL 0 0 O_____________ nhc_working_bt AL032021 31.8000 -88.6000 TS 35 1007 0 180 1010 150 120 45 12 120 14 46
2021166N20265 2021 35 NA NA CLAUDETTE 2021-06-19 21:00:00 TS 32.1517 -88.1257 PROVISIONAL 0 0 P_____________ AL032021 32.1517 -88.1257 TS 30 1006 -1 1010 150 120 10 52
2021166N20265 2021 35 NA NA CLAUDETTE 2021-06-20 00:00:00 TS 32.4000 -87.7000 PROVISIONAL 0 0 O_____________ nhc_working_bt AL032021 32.4000 -87.7000 TD 25 1005 -1 1010 150 120 35 9 55
2021166N20265 2021 35 NA NA CLAUDETTE 2021-06-20 03:00:00 TS 32.6956 -87.2055 PROVISIONAL 0 0 P_____________ AL032021 32.6994 -87.2019 TD 25 1005 -1 1010 150 120 11 57
2021166N20265 2021 35 NA NA CLAUDETTE 2021-06-20 06:00:00 TS 33.0000 -86.6000 PROVISIONAL 0 0 O_____________ nhc_working_bt AL032021 33.0000 -86.6000 TD 25 1006 -1 1011 150 120 35 13 61
2021166N20265 2021 35 NA NA CLAUDETTE 2021-06-20 09:00:00 TS 33.3514 -85.8170 PROVISIONAL 0 0 P_____________ AL032021 33.3225 -85.8454 TD 25 1007 -1 1011 150 120 15 65
2021166N20265 2021 35 NA NA CLAUDETTE 2021-06-20 12:00:00 TS 33.6500 -84.9500 PROVISIONAL 0 0 O_____________ nhc_working_bt AL032021 33.6000 -85.0000 TD 25 1008 -1 1012 150 120 35 15 73
2021166N20265 2021 35 NA NA CLAUDETTE 2021-06-20 15:00:00 TS 33.7851 -84.1494 PROVISIONAL 0 0 P_____________ AL032021 33.7566 -84.1785 TD 25 1008 -1 1012 137 120 14 80
2021166N20265 2021 35 NA NA CLAUDETTE 2021-06-20 18:00:00 TS 33.9000 -83.3000 PROVISIONAL 0 0 O_____________ nhc_working_bt AL032021 33.9000 -83.3000 TD 25 1009 -1 1012 125 120 35 15 78
2021166N20265 2021 35 NA NA CLAUDETTE 2021-06-20 21:00:00 TS 34.1116 -82.3516 PROVISIONAL 0 0 P_____________ AL032021 34.1115 -82.3513 TD 27 1008 -1 1012 125 120 17 73
2021166N20265 2021 35 NA NA CLAUDETTE 2021-06-21 00:00:00 TS 34.4000 -81.3000 PROVISIONAL 0 0 O_____________ nhc_working_bt AL032021 34.4000 -81.3000 TD 30 1008 -1 1012 125 120 35 19 71
2021166N20265 2021 35 NA NA CLAUDETTE 2021-06-21 03:00:00 TS 34.7252 -80.1719 PROVISIONAL 0 0 P_____________ AL032021 34.7617 -80.1441 TD 32 1007 -1 1012 122 115 21 69
2021166N20265 2021 35 NA NA CLAUDETTE 2021-06-21 06:00:00 TS 35.1500 -78.9500 PROVISIONAL 0 0 O_____________ nhc_working_bt AL032021 35.2000 -78.9000 TS 35 1007 0 120 1012 120 110 45 23 64
2021166N20265 2021 35 NA NA CLAUDETTE 2021-06-21 09:00:00 TS 35.7390 -77.6571 PROVISIONAL 0 0 P_____________ AL032021 35.7058 -77.6375 TS 37 1006 0 120 1012 120 110 24 62
2021166N20265 2021 35 NA NA CLAUDETTE 2021-06-21 12:00:00 TS 36.3000 -76.3000 PROVISIONAL 0 0 O_____________ nhc_working_bt AL032021 36.2000 -76.3000 TS 40 1006 0 120 1012 120 110 45 23 69
2021166N20265 2021 35 NA NA CLAUDETTE 2021-06-21 15:00:00 TS 36.5873 -74.9646 PROVISIONAL 74 74 P_____________ AL032021 36.5560 -74.8841 TS 40 1005 0 125 1012 120 110 23 76
2021166N20265 2021 35 NA NA CLAUDETTE 2021-06-21 18:00:00 TS 36.8500 -73.5500 PROVISIONAL 202 202 O_____________ nhc_working_bt AL032021 36.9000 -73.4000 TS 40 1004 0 130 1012 120 110 50 12 240 25 74
2021166N20265 2021 35 NA NA CLAUDETTE 2021-06-21 21:00:00 TS 37.2756 -71.9802 PROVISIONAL 293 293 P_____________ AL032021 37.3266 -71.8679 TS 40 1004 0 130 1011 115 105 12 240 28 70
2021166N20265 2021 35 NA NA CLAUDETTE 2021-06-22 00:00:00 TS 37.8000 -70.3000 PROVISIONAL 387 O_____________ nhc_working_bt AL032021 37.8000 -70.3000 TS 40 1004 0 130 1010 110 100 50 12 240 210 29 68

About IBTrACS Database

This database is a web-friendly format of International Best Track Archive for Climate Stewardship (IBTrACS), a global best track data archive curated by NOAA dating back to 1842.

Updated: 2021-07-26